createdAt,value
2023-04-15T00:02:02.871Z,1.38
2023-04-15T00:04:34.147Z,1.63
2023-04-15T00:07:05.085Z,1.52
2023-04-15T00:09:35.765Z,1.60
2023-04-15T00:12:09.390Z,1.20
2023-04-15T00:14:40.102Z,1.40
2023-04-15T00:17:11.032Z,1.52
2023-04-15T00:19:42.154Z,1.35
2023-04-15T00:22:13.077Z,1.40
2023-04-15T00:24:44.236Z,1.60
2023-04-15T00:27:17.680Z,1.25
2023-04-15T00:29:48.605Z,1.52
2023-04-15T00:32:19.390Z,1.92
2023-04-15T00:34:50.187Z,1.30
2023-04-15T00:37:21.072Z,1.23
2023-04-15T00:39:52.435Z,1.50
2023-04-15T00:42:26.067Z,1.45
2023-04-15T00:44:57.611Z,2.47
2023-04-15T00:47:29.683Z,1.50
2023-04-15T00:50:00.492Z,1.60
2023-04-15T00:52:31.469Z,1.70
2023-04-15T00:55:02.705Z,1.30
2023-04-15T00:57:37.068Z,1.40
2023-04-15T01:00:09.960Z,1.70
2023-04-15T01:02:41.393Z,1.48
2023-04-15T01:05:12.674Z,1.70
2023-04-15T01:07:43.912Z,1.45
2023-04-15T01:10:15.101Z,1.48
2023-04-15T01:12:49.492Z,1.73
2023-04-15T01:15:20.760Z,1.45
2023-04-15T01:17:52.110Z,1.15
2023-04-15T01:20:23.761Z,1.23
2023-04-15T01:22:54.722Z,1.20
2023-04-15T01:25:35.059Z,1.38
2023-04-15T01:28:06.369Z,2.15
2023-04-15T01:30:38.420Z,1.58
2023-04-15T01:33:09.217Z,1.45
2023-04-15T01:35:58.063Z,1.40
2023-04-15T01:38:31.018Z,1.15
2023-04-15T01:41:04.643Z,1.90
2023-04-15T01:43:35.522Z,1.48
2023-04-15T01:46:06.531Z,1.90
2023-04-15T01:48:37.683Z,1.98
2023-04-15T01:51:08.547Z,1.33
2023-04-15T01:53:39.538Z,1.40
2023-04-15T01:56:14.707Z,1.50
2023-04-15T01:58:47.898Z,1.45
2023-04-15T02:01:20.116Z,1.70
2023-04-15T02:03:51.176Z,1.20
2023-04-15T02:06:21.863Z,1.92
2023-04-15T02:08:52.625Z,1.38
2023-04-15T02:11:26.241Z,1.65
2023-04-15T02:13:57.415Z,1.60
2023-04-15T02:16:29.605Z,1.50
2023-04-15T02:19:00.589Z,1.95
2023-04-15T02:21:31.366Z,1.80
2023-04-15T02:24:02.691Z,1.80
2023-04-15T02:26:35.983Z,2.00
2023-04-15T02:29:07.153Z,1.98
2023-04-15T02:31:40.801Z,2.42
2023-04-15T02:34:11.544Z,2.28
2023-04-15T02:36:42.272Z,2.40
2023-04-15T02:39:15.154Z,2.67
2023-04-15T02:41:52.265Z,2.40
2023-04-15T02:44:25.278Z,2.05
2023-04-15T02:47:00.926Z,2.50
2023-04-15T02:49:32.007Z,2.60
2023-04-15T02:52:02.601Z,2.40
2023-04-15T02:54:34.702Z,2.60
2023-04-15T02:57:08.551Z,2.35
2023-04-15T02:59:39.782Z,2.10
2023-04-15T03:02:10.915Z,2.10
2023-04-15T03:04:41.763Z,2.00
2023-04-15T03:07:12.366Z,1.95
2023-04-15T03:09:43.554Z,1.80
2023-04-15T03:12:19.750Z,2.72
2023-04-15T03:14:50.849Z,2.53
2023-04-15T03:17:21.588Z,2.30
2023-04-15T03:19:53.355Z,2.70
2023-04-15T03:22:23.856Z,2.53
2023-04-15T03:24:56.481Z,2.65
2023-04-15T03:27:29.765Z,3.10
2023-04-15T03:30:04.274Z,2.95
2023-04-15T03:32:37.086Z,2.33
2023-04-15T03:35:10.585Z,2.90
2023-04-15T03:37:41.370Z,4.40
2023-04-15T03:40:13.090Z,3.80
2023-04-15T03:42:46.382Z,2.95
2023-04-15T03:45:17.101Z,2.58
2023-04-15T03:47:47.878Z,2.83
2023-04-15T03:50:18.770Z,2.40
2023-04-15T03:52:50.739Z,2.83
2023-04-15T03:55:22.075Z,2.15
2023-04-15T03:57:55.332Z,3.13
2023-04-15T04:00:26.161Z,2.75
2023-04-15T04:02:57.402Z,2.63
2023-04-15T04:05:28.149Z,3.50
2023-04-15T04:07:58.769Z,3.47
2023-04-15T04:10:30.518Z,3.13
2023-04-15T04:13:03.817Z,2.40
2023-04-15T04:15:34.464Z,3.10
2023-04-15T04:18:05.150Z,2.83
2023-04-15T04:20:35.994Z,2.60
2023-04-15T04:23:06.865Z,3.13
2023-04-15T04:25:38.002Z,2.63
2023-04-15T04:28:12.019Z,2.50
2023-04-15T04:30:42.906Z,2.67
2023-04-15T04:33:13.647Z,3.05
2023-04-15T04:35:44.331Z,3.58
2023-04-15T04:38:14.984Z,4.40
2023-04-15T04:40:45.766Z,3.75
2023-04-15T04:43:19.092Z,4.30
2023-04-15T04:45:49.810Z,4.10
2023-04-15T04:48:20.371Z,3.05
2023-04-15T04:50:51.390Z,3.08
2023-04-15T04:53:22.140Z,3.33
2023-04-15T04:55:53.092Z,3.78
2023-04-15T04:58:26.746Z,4.45
2023-04-15T05:00:57.633Z,3.80
2023-04-15T05:03:28.356Z,3.50
2023-04-15T05:05:59.602Z,3.47
2023-04-15T05:08:30.167Z,3.33
2023-04-15T05:11:00.903Z,3.70
2023-04-15T05:13:34.036Z,4.30
2023-04-15T05:16:04.649Z,2.95
2023-04-15T05:18:35.381Z,4.75
2023-04-15T05:21:06.342Z,4.50
2023-04-15T05:23:37.952Z,4.30
2023-04-15T05:26:08.809Z,3.70
2023-04-15T05:28:42.031Z,3.33
2023-04-15T05:31:12.662Z,3.30
2023-04-15T05:33:43.661Z,4.40
2023-04-15T05:36:14.433Z,3.50
2023-04-15T05:38:45.009Z,3.85
2023-04-15T05:41:18.390Z,3.05
2023-04-15T05:43:53.017Z,3.13
2023-04-15T05:46:23.794Z,3.10
2023-04-15T05:48:56.378Z,3.17
2023-04-15T05:51:27.597Z,3.72
2023-04-15T05:53:58.213Z,3.03
2023-04-15T05:56:29.625Z,2.50
2023-04-15T05:59:02.950Z,2.63
2023-04-15T06:01:33.806Z,3.10
2023-04-15T06:04:04.647Z,3.33
2023-04-15T06:06:35.660Z,3.20
2023-04-15T06:09:06.588Z,3.20
2023-04-15T06:11:37.322Z,2.58
2023-04-15T06:14:10.510Z,2.10
2023-04-15T06:16:41.370Z,1.80
2023-04-15T06:19:12.696Z,1.80
2023-04-15T06:21:43.665Z,1.10
2023-04-15T06:24:14.961Z,1.15
2023-04-15T06:26:45.594Z,2.00
2023-04-15T06:29:18.840Z,2.15
2023-04-15T06:31:50.973Z,1.60
2023-04-15T06:34:21.967Z,1.30
2023-04-15T06:36:52.678Z,1.13
2023-04-15T06:39:23.330Z,1.48
2023-04-15T06:41:54.170Z,1.10
2023-04-15T06:44:28.303Z,1.20
2023-04-15T06:46:58.905Z,1.65
2023-04-15T06:49:29.573Z,1.35
2023-04-15T06:52:00.959Z,1.55
2023-04-15T06:54:31.624Z,1.00
2023-04-15T06:57:02.605Z,1.40
2023-04-15T06:59:35.842Z,1.20
2023-04-15T07:02:06.610Z,1.23
2023-04-15T07:04:37.372Z,1.30
2023-04-15T07:07:08.462Z,1.38
2023-04-15T07:09:39.143Z,1.38
2023-04-15T07:12:09.893Z,2.03
2023-04-15T07:14:43.114Z,1.52
2023-04-15T07:17:13.926Z,1.73
2023-04-15T07:19:44.616Z,1.20
2023-04-15T07:22:15.286Z,1.30
2023-04-15T07:24:45.884Z,1.10
2023-04-15T07:27:16.766Z,1.35
2023-04-15T07:29:51.811Z,1.10
2023-04-15T07:32:22.885Z,1.65
2023-04-15T07:34:53.885Z,1.00
2023-04-15T07:37:24.587Z,1.17
2023-04-15T07:39:55.707Z,0.90
2023-04-15T07:42:26.471Z,1.35
2023-04-15T07:45:00.377Z,1.60
2023-04-15T07:47:31.231Z,1.17
2023-04-15T07:50:02.559Z,1.55
2023-04-15T07:52:39.363Z,1.20
2023-04-15T07:55:11.779Z,1.50
2023-04-15T07:57:42.490Z,1.40
2023-04-15T08:00:17.700Z,1.05
2023-04-15T08:02:48.708Z,1.50
2023-04-15T08:05:20.039Z,1.20
2023-04-15T08:07:50.972Z,1.15
2023-04-15T08:10:24.612Z,1.63
2023-04-15T08:12:55.371Z,2.08
2023-04-15T08:15:29.766Z,1.58
2023-04-15T08:18:01.049Z,1.75
2023-04-15T08:20:31.823Z,2.75
2023-04-15T08:23:02.580Z,2.00
2023-04-15T08:25:33.730Z,1.10
2023-04-15T08:28:07.796Z,1.48
2023-04-15T08:30:41.070Z,1.42
2023-04-15T08:33:11.831Z,1.13
2023-04-15T08:35:42.443Z,1.30
2023-04-15T08:38:13.277Z,1.60
2023-04-15T08:40:45.872Z,1.65
2023-04-15T08:43:22.251Z,1.17
2023-04-15T08:46:00.569Z,0.95
2023-04-15T08:48:32.954Z,1.20
2023-04-15T08:51:04.622Z,1.13
2023-04-15T08:53:35.867Z,1.08
2023-04-15T08:56:10.853Z,1.20
2023-04-15T08:58:41.978Z,1.10
2023-04-15T09:01:16.273Z,1.45
2023-04-15T09:03:47.699Z,1.30
2023-04-15T09:06:20.235Z,1.10
2023-04-15T09:08:51.190Z,1.63
2023-04-15T09:11:22.277Z,1.33
2023-04-15T09:13:53.122Z,2.05
2023-04-15T09:16:26.427Z,1.52
2023-04-15T09:18:57.190Z,1.98
2023-04-15T09:21:29.883Z,1.80
2023-04-15T09:24:02.895Z,2.15
2023-04-15T09:26:35.742Z,1.70
2023-04-15T09:29:09.822Z,1.13
2023-04-15T09:31:43.868Z,1.37
2023-04-15T09:34:14.787Z,1.60
2023-04-15T09:37:00.183Z,1.20
2023-04-15T09:39:30.764Z,1.40
2023-04-15T09:42:10.161Z,1.50
2023-04-15T09:44:41.160Z,1.70
2023-04-15T09:47:31.830Z,1.55
2023-04-15T09:50:03.907Z,1.60
2023-04-15T09:52:34.665Z,1.77
2023-04-15T09:55:05.380Z,1.67
2023-04-15T09:57:41.486Z,1.65
2023-04-15T10:00:13.398Z,1.58
2023-04-15T10:02:47.473Z,1.35
2023-04-15T10:05:19.640Z,1.67
2023-04-15T10:07:50.863Z,1.83
2023-04-15T10:10:21.886Z,1.33
2023-04-15T10:12:54.560Z,1.00
2023-04-15T10:15:26.761Z,1.30
2023-04-15T10:18:00.913Z,1.52
2023-04-15T10:20:35.552Z,1.70
2023-04-15T10:23:08.134Z,1.65
2023-04-15T10:25:40.681Z,2.30
2023-04-15T10:28:11.743Z,1.23
2023-04-15T10:30:42.615Z,1.33
2023-04-15T10:33:17.465Z,1.10
2023-04-15T10:35:49.317Z,1.00
2023-04-15T10:38:44.826Z,1.10
2023-04-15T10:41:21.263Z,1.20
2023-04-15T10:43:54.459Z,1.25
2023-04-15T10:46:26.940Z,1.35
2023-04-15T10:49:01.349Z,1.20
2023-04-15T10:51:33.885Z,0.95
2023-04-15T10:54:04.635Z,1.08
2023-04-15T10:56:35.871Z,1.20
2023-04-15T10:59:08.849Z,1.40
2023-04-15T11:02:04.857Z,1.10
2023-04-15T11:05:01.182Z,1.10
2023-04-15T11:07:42.640Z,0.90
2023-04-15T11:11:00.499Z,1.10
2023-04-15T11:13:33.466Z,0.90
2023-04-15T11:16:05.573Z,0.82
2023-04-15T11:18:38.325Z,0.98
2023-04-15T11:21:12.535Z,1.23
2023-04-15T11:23:47.133Z,1.50
2023-04-15T11:26:18.000Z,1.88
2023-04-15T11:28:49.731Z,1.90
2023-04-15T11:31:23.596Z,1.95
2023-04-15T11:33:59.589Z,1.70
2023-04-15T11:36:34.351Z,1.80
2023-04-15T11:39:05.252Z,1.90
2023-04-15T11:41:36.029Z,1.80
2023-04-15T11:44:06.942Z,2.00
2023-04-15T11:46:37.604Z,2.38
2023-04-15T11:49:08.274Z,1.90
2023-04-15T11:51:41.759Z,1.90
2023-04-15T11:54:12.563Z,2.50
2023-04-15T11:56:43.512Z,1.70
2023-04-15T11:59:14.220Z,2.00
2023-04-15T12:01:47.090Z,2.08
2023-04-15T12:04:25.220Z,2.38
2023-04-15T12:07:08.146Z,2.40
2023-04-15T12:09:41.620Z,2.30
2023-04-15T12:12:12.888Z,2.17
2023-04-15T12:14:43.686Z,1.90
2023-04-15T12:17:14.686Z,1.98
2023-04-15T12:19:46.085Z,1.90
2023-04-15T12:22:20.975Z,2.10
2023-04-15T12:24:58.676Z,2.33
2023-04-15T12:27:30.045Z,2.05
2023-04-15T12:30:09.274Z,1.98
2023-04-15T12:32:42.184Z,1.50
2023-04-15T12:35:14.684Z,2.10
2023-04-15T12:37:48.116Z,2.00
2023-04-15T12:40:18.907Z,1.90
2023-04-15T12:42:50.664Z,2.00
2023-04-15T12:45:21.797Z,1.33
2023-04-15T12:47:52.736Z,1.30
2023-04-15T12:50:23.546Z,1.33
2023-04-15T12:52:57.026Z,1.60
2023-04-15T12:55:28.075Z,1.33
2023-04-15T12:57:58.842Z,1.50
2023-04-15T13:00:29.572Z,1.83
2023-04-15T13:03:00.427Z,1.92
2023-04-15T13:05:31.393Z,2.03
2023-04-15T13:08:04.829Z,1.60
2023-04-15T13:10:36.849Z,1.50
2023-04-15T13:13:08.286Z,1.73
2023-04-15T13:15:39.031Z,1.70
2023-04-15T13:18:10.790Z,1.50
2023-04-15T13:20:41.783Z,1.90
2023-04-15T13:23:15.340Z,1.95
2023-04-15T13:25:46.481Z,1.65
2023-04-15T13:28:17.235Z,1.75
2023-04-15T13:30:49.231Z,1.90
2023-04-15T13:33:20.527Z,2.00
2023-04-15T13:35:51.176Z,2.03
2023-04-15T13:38:24.633Z,1.58
2023-04-15T13:40:55.394Z,1.65
2023-04-15T13:43:26.784Z,1.60
2023-04-15T13:45:57.662Z,1.60
2023-04-15T13:48:28.843Z,2.13
2023-04-15T13:50:59.579Z,1.70
2023-04-15T13:53:38.493Z,1.40
2023-04-15T13:56:11.028Z,1.80
2023-04-15T13:58:42.209Z,1.58
2023-04-15T14:01:13.185Z,1.70
2023-04-15T14:03:44.140Z,1.70
2023-04-15T14:06:14.853Z,1.67
2023-04-15T14:08:48.417Z,1.77
2023-04-15T14:11:19.104Z,1.60
2023-04-15T14:13:50.033Z,1.83
2023-04-15T14:16:20.805Z,2.13
2023-04-15T14:18:51.704Z,1.65
2023-04-15T14:21:22.461Z,1.95
2023-04-15T14:23:55.933Z,2.28
2023-04-15T14:26:26.740Z,1.90
2023-04-15T14:28:57.708Z,1.80
2023-04-15T14:31:28.571Z,2.22
2023-04-15T14:33:59.489Z,1.77
2023-04-15T14:36:30.555Z,1.60
2023-04-15T14:39:04.509Z,1.58
2023-04-15T14:41:35.529Z,1.67
2023-04-15T14:44:06.323Z,1.70
2023-04-15T14:46:37.028Z,1.30
2023-04-15T14:49:08.826Z,1.60
2023-04-15T14:51:41.672Z,1.35
2023-04-15T14:54:15.379Z,1.38
2023-04-15T14:56:46.105Z,1.20
2023-04-15T14:59:16.788Z,1.88
2023-04-15T15:01:47.593Z,1.40
2023-04-15T15:04:18.703Z,1.65
2023-04-15T15:06:50.556Z,1.35
2023-04-15T15:09:24.189Z,1.13
2023-04-15T15:11:54.914Z,1.58
2023-04-15T15:14:25.658Z,1.92
2023-04-15T15:16:56.382Z,2.10
2023-04-15T15:19:27.299Z,1.38
2023-04-15T15:21:58.090Z,1.98
2023-04-15T15:24:31.691Z,1.60
2023-04-15T15:27:02.606Z,2.00
2023-04-15T15:29:33.474Z,1.92
2023-04-15T15:32:04.136Z,2.20
2023-04-15T15:34:34.847Z,2.70
2023-04-15T15:37:05.584Z,2.42
2023-04-15T15:39:39.211Z,2.25
2023-04-15T15:42:10.018Z,3.88
2023-04-15T15:44:41.092Z,3.30
2023-04-15T15:47:11.952Z,2.55
2023-04-15T15:49:43.377Z,2.40
2023-04-15T15:52:16.574Z,4.10
2023-04-15T15:54:50.190Z,3.03
2023-04-15T15:57:21.227Z,3.30
2023-04-15T16:00:04.941Z,3.28
2023-04-15T16:05:17.022Z,2.50
2023-04-15T16:07:47.739Z,3.95
2023-04-15T16:10:21.298Z,2.30
2023-04-15T16:12:51.983Z,2.30
2023-04-15T16:15:23.041Z,2.67
2023-04-15T16:17:54.057Z,2.63
2023-04-15T16:20:25.112Z,3.08
2023-04-15T16:22:55.851Z,2.60
2023-04-15T16:25:29.357Z,2.83
2023-04-15T16:28:08.569Z,3.47
2023-04-15T16:33:15.977Z,3.05
2023-04-15T16:35:46.828Z,2.85
2023-04-15T16:38:17.532Z,3.40
2023-04-15T16:40:51.824Z,3.97
2023-04-15T16:43:22.657Z,3.70
2023-04-15T16:45:53.475Z,3.25
2023-04-15T16:48:24.696Z,3.70
2023-04-15T16:50:55.778Z,3.47
2023-04-15T16:53:26.682Z,3.92
2023-04-15T16:56:00.096Z,4.00
2023-04-15T16:58:30.918Z,4.82
2023-04-15T17:01:02.219Z,6.07
2023-04-15T17:03:34.468Z,7.53
2023-04-15T17:06:05.460Z,6.60
2023-04-15T17:08:36.246Z,7.53
2023-04-15T17:11:09.830Z,7.40
2023-04-15T17:13:40.869Z,6.85
2023-04-15T17:16:12.812Z,7.60
2023-04-15T17:18:47.814Z,6.25
2023-04-15T17:21:29.627Z,7.00
2023-04-15T17:24:05.376Z,8.18
2023-04-15T17:26:47.531Z,7.50
2023-04-15T17:29:20.917Z,10.23
2023-04-15T17:31:56.199Z,9.98
2023-04-15T17:34:50.546Z,11.82
2023-04-15T17:37:41.779Z,11.38
2023-04-15T17:40:32.528Z,9.63
2023-04-15T17:43:25.677Z,9.38
2023-04-15T17:46:16.688Z,9.23
2023-04-15T17:49:07.425Z,9.02
2023-04-15T17:51:58.110Z,10.20
2023-04-15T17:54:50.026Z,10.82
2023-04-15T17:57:41.194Z,6.18
2023-04-15T18:00:34.415Z,10.18
2023-04-15T18:03:25.135Z,11.63
2023-04-15T18:06:17.236Z,11.23
2023-04-15T18:09:09.021Z,14.82
2023-04-15T18:11:59.633Z,11.82
2023-04-15T18:14:50.414Z,12.30
2023-04-15T18:17:43.565Z,11.07
2023-04-15T18:20:19.507Z,11.75
2023-04-15T18:22:52.239Z,13.25
2023-04-15T18:25:23.664Z,12.38
2023-04-15T18:27:54.525Z,10.93
2023-04-15T18:30:25.445Z,10.45
2023-04-15T18:32:59.000Z,9.57
2023-04-15T18:35:30.237Z,9.68
2023-04-15T18:38:01.627Z,8.77
2023-04-15T18:40:35.483Z,8.57
2023-04-15T18:43:06.997Z,8.60
2023-04-15T18:45:38.130Z,8.07
2023-04-15T18:48:11.889Z,7.90
2023-04-15T18:50:42.835Z,8.18
2023-04-15T18:53:13.734Z,8.82
2023-04-15T18:55:44.502Z,8.35
2023-04-15T18:58:15.999Z,7.53
2023-04-15T19:00:46.826Z,8.25
2023-04-15T19:03:20.553Z,9.25
2023-04-15T19:05:51.276Z,9.32
2023-04-15T19:08:22.221Z,9.52
2023-04-15T19:10:53.058Z,11.20
2023-04-15T19:13:24.571Z,10.40
2023-04-15T19:15:55.631Z,9.68
2023-04-15T19:18:29.760Z,11.40
2023-04-15T19:21:00.677Z,11.18
2023-04-15T19:23:32.023Z,11.25
2023-04-15T19:26:02.828Z,11.93
2023-04-15T19:28:33.680Z,12.15
2023-04-15T19:31:04.712Z,10.32
2023-04-15T19:33:38.418Z,11.43
2023-04-15T19:36:10.743Z,10.98
2023-04-15T19:38:41.777Z,11.15
2023-04-15T19:41:13.507Z,11.80
2023-04-15T19:43:44.471Z,11.70
2023-04-15T19:46:15.770Z,10.32
2023-04-15T19:48:49.424Z,10.98
2023-04-15T19:51:21.803Z,12.88
2023-04-15T19:53:54.459Z,12.85
2023-04-15T19:56:26.988Z,11.98
2023-04-15T19:59:00.165Z,11.77
2023-04-15T20:01:31.290Z,12.25
2023-04-15T20:04:05.079Z,11.43
2023-04-15T20:06:36.219Z,9.23
2023-04-15T20:09:08.997Z,8.38
2023-04-15T20:12:45.969Z,8.93
2023-04-15T20:14:32.794Z,8.75
2023-04-15T20:17:03.600Z,7.97
2023-04-15T20:19:36.966Z,7.93
2023-04-15T20:22:07.803Z,8.63
2023-04-15T20:24:38.589Z,9.45
2023-04-15T20:27:09.398Z,9.77
2023-04-15T20:29:40.370Z,8.57
2023-04-15T20:32:11.902Z,8.15
2023-04-15T20:34:45.235Z,8.05
2023-04-15T20:37:16.492Z,8.15
2023-04-15T20:39:47.787Z,7.85
2023-04-15T20:42:18.547Z,7.80
2023-04-15T20:44:49.538Z,7.38
2023-04-15T20:47:20.427Z,10.18
2023-04-15T20:49:54.321Z,8.13
2023-04-15T20:52:25.179Z,9.80
2023-04-15T20:54:56.263Z,8.48
2023-04-15T20:57:29.075Z,7.80
2023-04-15T21:00:00.019Z,8.10
2023-04-15T21:02:31.068Z,8.52
2023-04-15T21:05:05.063Z,8.25
2023-04-15T21:07:36.413Z,7.47
2023-04-15T21:10:07.589Z,7.07
2023-04-15T21:12:41.653Z,8.77
2023-04-15T21:15:13.485Z,6.68
2023-04-15T21:17:44.451Z,6.93
2023-04-15T21:20:18.492Z,6.75
2023-04-15T21:22:49.416Z,6.72
2023-04-15T21:25:20.551Z,6.82
2023-04-15T21:27:51.509Z,7.10
2023-04-15T21:30:24.132Z,6.82
2023-04-15T21:32:56.073Z,5.43
2023-04-15T21:35:30.792Z,5.70
2023-04-15T21:38:01.756Z,6.40
2023-04-15T21:40:32.960Z,5.22
2023-04-15T21:43:03.689Z,5.85
2023-04-15T21:45:34.533Z,6.38
2023-04-15T21:48:07.608Z,5.30
2023-04-15T21:50:42.457Z,4.83
2023-04-15T21:53:13.225Z,4.90
2023-04-15T21:55:43.977Z,4.65
2023-04-15T21:58:14.656Z,5.50
2023-04-15T22:00:45.269Z,5.15
2023-04-15T22:03:16.351Z,4.70
2023-04-15T22:05:50.297Z,4.80
2023-04-15T22:08:21.132Z,4.05
2023-04-15T22:10:51.994Z,6.40
2023-04-15T22:13:22.635Z,4.80
2023-04-15T22:15:53.514Z,4.88
2023-04-15T22:18:24.451Z,4.97
2023-04-15T22:20:57.972Z,4.75
2023-04-15T22:23:28.709Z,4.10
2023-04-15T22:25:59.479Z,4.20
2023-04-15T22:28:30.367Z,5.07
2023-04-15T22:31:01.377Z,4.53
2023-04-15T22:33:32.089Z,4.40
2023-04-15T22:36:05.801Z,4.28
2023-04-15T22:38:36.772Z,4.63
2023-04-15T22:41:07.569Z,5.10
2023-04-15T22:43:38.319Z,6.97
2023-04-15T22:46:09.273Z,5.13
2023-04-15T22:48:40.431Z,6.18
2023-04-15T22:51:13.815Z,6.90
2023-04-15T22:53:45.024Z,5.28
2023-04-15T22:56:17.578Z,4.75
2023-04-15T22:58:48.541Z,4.05
2023-04-15T23:01:21.115Z,4.90
2023-04-15T23:03:56.983Z,4.97
2023-04-15T23:06:40.416Z,4.53
2023-04-15T23:09:11.633Z,5.70
2023-04-15T23:11:42.686Z,4.75
2023-04-15T23:14:13.975Z,6.68
2023-04-15T23:16:45.855Z,4.55
2023-04-15T23:19:17.219Z,4.60
2023-04-15T23:21:50.878Z,3.78
2023-04-15T23:24:21.732Z,4.70
2023-04-15T23:26:53.386Z,5.50
2023-04-15T23:29:24.249Z,4.70
2023-04-15T23:31:55.118Z,3.92
2023-04-15T23:34:26.021Z,3.90
2023-04-15T23:36:59.605Z,4.85
2023-04-15T23:39:30.526Z,3.63
2023-04-15T23:42:01.641Z,3.15
2023-04-15T23:44:32.593Z,2.80
2023-04-15T23:47:03.521Z,3.50
2023-04-15T23:49:34.397Z,4.32
2023-04-15T23:52:08.047Z,3.25
2023-04-15T23:54:38.795Z,4.05
2023-04-15T23:57:09.705Z,2.50
2023-04-15T23:59:40.878Z,3.40
